Time;durP1;ratioP1;P1;durP2;ratioP2;P2;SDS_P1;SDS_P2;PMS_P1;PMS_P2;Temp;Humidity;BMP_temperature;BMP_pressure;BME280_temperature;BME280_humidity;BME280_pressure;Samples;Min_cycle;Max_cycle;Signal;HPM_P1;HPM_P2
2023/10/17 00:00:38;;;;;;;6.95;4.35;;;;;;;6.80;nan;99514.47;4952085;28;20212;-78
2023/10/17 00:03:05;;;;;;;4.95;3.55;;;;;;;6.81;nan;99521.41;4952430;28;20197;-78
2023/10/17 00:05:31;;;;;;;3.88;3.50;;;;;;;6.81;nan;99518.78;4956485;28;20300;-77
2023/10/17 00:07:58;;;;;;;7.33;3.53;;;;;;;6.78;nan;99516.31;4950934;28;20360;-77
2023/10/17 00:10:24;;;;;;;5.93;4.15;;;;;;;6.72;nan;99518.38;4951760;28;20232;-78
2023/10/17 00:12:52;;;;;;;6.10;3.93;;;;;;;6.65;nan;99529.13;4953838;28;20219;-77
2023/10/17 00:15:27;;;;;;;3.63;3.33;;;;;;;6.56;nan;99539.16;4950711;28;20479;-77
2023/10/17 00:17:56;;;;;;;7.10;3.67;;;;;;;6.43;nan;99534.53;4950738;28;20195;-77
2023/10/17 00:20:25;;;;;;;5.10;4.43;;;;;;;6.34;nan;99529.75;4950669;28;20204;-77
2023/10/17 00:22:51;;;;;;;4.32;3.63;;;;;;;6.33;nan;99527.22;4952884;28;20204;-77
2023/10/17 00:25:17;;;;;;;5.55;3.80;;;;;;;6.26;nan;99526.66;4950476;28;20304;-77
2023/10/17 00:27:43;;;;;;;3.92;3.63;;;;;;;6.17;nan;99525.34;4952316;28;20247;-78
2023/10/17 00:30:17;;;;;;;6.23;3.70;;;;;;;6.13;nan;99529.00;4936396;28;20213;-78
2023/10/17 00:32:44;;;;;;;4.07;3.45;;;;;;;6.11;nan;99524.78;4934394;28;20567;-77
2023/10/17 00:35:18;;;;;;;3.63;3.33;;;;;;;6.09;nan;99519.63;4953393;28;20212;-77
2023/10/17 00:37:52;;;;;;;6.07;5.05;;;;;;;6.16;nan;99522.81;4952373;28;20448;-79
2023/10/17 00:40:34;;;;;;;3.65;3.30;;;;;;;6.20;nan;99519.13;4956566;28;20250;-79
2023/10/17 00:43:04;;;;;;;3.53;3.22;;;;;;;6.22;nan;99521.69;4953393;28;20204;-79
2023/10/17 00:45:32;;;;;;;8.35;4.15;;;;;;;6.23;nan;99529.41;4955138;28;20197;-79
2023/10/17 00:48:00;;;;;;;3.53;3.22;;;;;;;6.25;nan;99524.13;4952990;28;20205;-79
2023/10/17 00:50:26;;;;;;;4.78;3.65;;;;;;;6.24;nan;99518.06;4934366;28;20263;-79
2023/10/17 00:52:52;;;;;;;5.40;3.43;;;;;;;6.24;nan;99510.25;4950708;28;20216;-79
2023/10/17 00:55:18;;;;;;;3.93;3.40;;;;;;;6.26;nan;99515.38;4936002;28;20480;-79
2023/10/17 00:57:47;;;;;;;4.20;3.30;;;;;;;6.22;nan;99524.28;4937945;28;20452;-79
2023/10/17 01:00:23;;;;;;;3.72;3.03;;;;;;;6.13;nan;99520.31;4958063;28;20619;-79
2023/10/17 01:02:51;;;;;;;5.47;3.10;;;;;;;6.06;nan;99518.94;4951771;28;20197;-79
2023/10/17 01:05:18;;;;;;;3.60;2.78;;;;;;;6.00;nan;99514.84;4936455;28;20205;-79
2023/10/17 01:07:44;;;;;;;4.00;3.25;;;;;;;5.95;nan;99516.81;4938112;28;21054;-79
2023/10/17 01:10:10;;;;;;;3.20;2.90;;;;;;;5.90;nan;99511.78;4959344;28;20236;-79
2023/10/17 01:12:53;;;;;;;3.00;2.78;;;;;;;5.90;nan;99513.53;4958073;28;20212;-79
2023/10/17 01:15:24;;;;;;;3.55;3.20;;;;;;;5.87;nan;99509.31;4954273;28;20540;-79
2023/10/17 01:17:53;;;;;;;2.83;2.53;;;;;;;5.81;nan;99514.81;4957712;28;20215;-79
2023/10/17 01:20:20;;;;;;;5.10;3.70;;;;;;;5.69;nan;99510.16;4954887;28;20204;-79
2023/10/17 01:22:47;;;;;;;3.33;2.92;;;;;;;5.60;nan;99502.75;4932724;28;20201;-79
2023/10/17 01:25:26;;;;;;;3.72;2.75;;;;;;;5.53;nan;99495.19;4954557;28;20208;-78
2023/10/17 01:27:52;;;;;;;5.65;3.13;;;;;;;5.46;nan;99493.81;4958088;28;20192;-79
2023/10/17 01:30:19;;;;;;;3.85;3.20;;;;;;;5.44;nan;99481.75;4957402;28;20212;-80
2023/10/17 01:32:46;;;;;;;3.67;3.38;;;;;;;5.44;nan;99494.78;4952437;28;20208;-79
2023/10/17 01:35:13;;;;;;;6.00;3.30;;;;;;;5.48;nan;99491.09;4953992;28;20264;-79
2023/10/17 01:37:40;;;;;;;4.40;4.00;;;;;;;5.52;nan;99493.53;4955503;28;20418;-79
2023/10/17 01:40:10;;;;;;;3.20;2.90;;;;;;;5.57;nan;99497.69;4956176;28;20455;-79
2023/10/17 01:42:37;;;;;;;12.43;3.85;;;;;;;5.61;nan;99500.06;4953989;28;20202;-79
2023/10/17 01:45:06;;;;;;;4.22;3.83;;;;;;;5.59;nan;99496.72;4933880;28;20193;-79
2023/10/17 01:47:31;;;;;;;3.78;2.90;;;;;;;5.49;nan;99501.47;4956336;28;20207;-79
2023/10/17 01:49:57;;;;;;;3.63;3.40;;;;;;;5.41;nan;99500.97;4954565;28;20209;-79
2023/10/17 01:52:24;;;;;;;4.77;3.30;;;;;;;5.33;nan;99490.03;4955100;28;20671;-79
2023/10/17 01:54:49;;;;;;;5.93;4.80;;;;;;;5.30;nan;99485.81;4952569;28;20195;-80
2023/10/17 01:57:17;;;;;;;6.80;3.10;;;;;;;5.31;nan;99486.66;4953534;28;20699;-80
2023/10/17 01:59:42;;;;;;;2.75;2.55;;;;;;;5.33;nan;99477.03;4951420;28;20216;-79
2023/10/17 02:02:08;;;;;;;4.70;2.80;;;;;;;5.31;nan;99474.47;4939183;28;20189;-79
2023/10/17 02:04:34;;;;;;;5.17;3.40;;;;;;;5.27;nan;99482.50;4954989;28;20185;-79
2023/10/17 02:07:00;;;;;;;4.95;4.32;;;;;;;5.27;nan;99479.91;4953751;28;20545;-79
2023/10/17 02:12:00;;;;;;;3.58;2.92;;;;;;;5.35;nan;99490.81;4954879;23;20332;-79
2023/10/17 02:14:26;;;;;;;3.95;3.58;;;;;;;5.38;nan;99495.91;4906227;28;20952;-77
2023/10/17 02:16:52;;;;;;;3.45;3.15;;;;;;;5.39;nan;99484.56;4930163;28;20259;-80
2023/10/17 02:19:25;;;;;;;3.95;3.25;;;;;;;5.37;nan;99488.97;4929780;28;20207;-77
2023/10/17 02:21:52;;;;;;;5.22;3.17;;;;;;;5.30;nan;99492.78;4939607;28;20693;-77
2023/10/17 02:24:21;;;;;;;3.15;2.90;;;;;;;5.19;nan;99501.06;4917368;28;20244;-78
2023/10/17 02:26:56;;;;;;;5.05;3.15;;;;;;;5.09;nan;99499.75;4931421;28;20801;-77
2023/10/17 02:29:26;;;;;;;3.30;2.80;;;;;;;5.05;nan;99490.38;4933141;28;20570;-77
2023/10/17 02:31:54;;;;;;;4.15;3.15;;;;;;;5.03;nan;99495.66;4914026;28;20245;-77
2023/10/17 02:34:23;;;;;;;3.15;2.90;;;;;;;5.00;nan;99505.38;4933748;28;20296;-77
2023/10/17 02:36:49;;;;;;;3.05;2.75;;;;;;;4.99;nan;99511.47;4938031;28;20209;-77
2023/10/17 02:39:15;;;;;;;3.25;2.95;;;;;;;4.99;nan;99503.66;4936645;28;20260;-77
2023/10/17 02:41:45;;;;;;;5.57;3.60;;;;;;;5.00;nan;99502.78;4920786;28;20200;-80
2023/10/17 02:44:12;;;;;;;4.05;3.45;;;;;;;5.03;nan;99506.09;4932341;28;20276;-80
2023/10/17 02:46:37;;;;;;;6.38;3.25;;;;;;;5.12;nan;99504.84;4934592;28;20205;-78
2023/10/17 02:49:07;;;;;;;3.37;3.07;;;;;;;5.19;nan;99508.03;4931458;28;21183;-78
2023/10/17 02:51:33;;;;;;;4.82;3.85;;;;;;;5.25;nan;99510.38;4933219;28;20216;-79
2023/10/17 02:54:05;;;;;;;4.43;2.97;;;;;;;5.29;nan;99509.31;4937268;28;20762;-78
2023/10/17 02:56:37;;;;;;;3.88;3.13;;;;;;;5.30;nan;99505.81;4934750;28;20288;-79
2023/10/17 03:01:30;;;;;;;5.03;2.90;;;;;;;5.32;nan;99517.84;4935014;28;20205;-80
2023/10/17 03:03:56;;;;;;;3.00;2.65;;;;;;;5.29;nan;99514.50;4934225;28;20667;-79
2023/10/17 03:06:22;;;;;;;4.10;3.08;;;;;;;5.25;nan;99524.22;4942524;28;21023;-77
2023/10/17 03:08:52;;;;;;;3.33;2.93;;;;;;;5.24;nan;99519.09;4938226;28;20208;-78
2023/10/17 03:11:26;;;;;;;3.90;3.10;;;;;;;5.17;nan;99512.47;4934682;28;20506;-79
2023/10/17 03:13:52;;;;;;;9.15;3.00;;;;;;;5.14;nan;99507.38;4936363;28;20210;-77
2023/10/17 03:16:26;;;;;;;4.30;2.38;;;;;;;5.15;nan;99506.47;4940830;28;20554;-80
2023/10/17 03:18:57;;;;;;;3.85;2.63;;;;;;;5.17;nan;99497.69;4922541;28;20731;-80
2023/10/17 03:21:34;;;;;;;3.58;2.88;;;;;;;5.19;nan;99488.03;4920775;28;20307;-80
2023/10/17 03:24:01;;;;;;;2.88;2.50;;;;;;;5.24;nan;99487.84;4935498;28;20368;-80
2023/10/17 03:26:26;;;;;;;5.22;3.35;;;;;;;5.28;nan;99492.84;4937106;28;20746;-77
2023/10/17 03:28:51;;;;;;;3.87;2.90;;;;;;;5.32;nan;99490.97;4922927;28;20206;-78
2023/10/17 03:31:21;;;;;;;2.60;2.40;;;;;;;5.35;nan;99495.16;4922907;28;20257;-79
2023/10/17 03:33:52;;;;;;;3.05;2.75;;;;;;;5.33;nan;99492.66;4918728;28;20189;-77
2023/10/17 03:39:18;;;;;;;4.18;3.22;;;;;;;5.21;nan;99501.84;4915031;28;20193;-79
2023/10/17 03:41:45;;;;;;;3.55;2.42;;;;;;;5.09;nan;99500.59;4933439;28;20216;-80
2023/10/17 03:44:15;;;;;;;3.08;2.65;;;;;;;4.99;nan;99493.25;4934191;28;20255;-80
2023/10/17 03:46:46;;;;;;;5.40;2.53;;;;;;;4.90;nan;99491.88;4936107;28;20198;-79
2023/10/17 03:49:18;;;;;;;3.13;2.50;;;;;;;4.88;nan;99493.69;4935199;28;20211;-80
2023/10/17 03:51:52;;;;;;;5.35;3.15;;;;;;;4.83;nan;99493.91;4939420;28;20213;-80
2023/10/17 03:54:22;;;;;;;5.07;3.40;;;;;;;4.82;nan;99487.00;4937425;28;20216;-80
2023/10/17 03:56:55;;;;;;;3.22;2.47;;;;;;;4.84;nan;99479.16;4937998;28;20295;-77
2023/10/17 03:59:41;;;;;;;2.50;2.30;;;;;;;4.84;nan;99476.53;4939203;28;20209;-77
2023/10/17 04:02:18;;;;;;;2.90;2.67;;;;;;;4.82;nan;99470.56;4936613;28;20205;-77
2023/10/17 04:04:53;;;;;;;5.30;3.25;;;;;;;4.87;nan;99474.66;4937933;28;20883;-80
2023/10/17 04:07:26;;;;;;;5.88;3.33;;;;;;;4.89;nan;99466.78;4939590;28;20710;-80
2023/10/17 04:12:48;;;;;;;6.20;3.88;;;;;;;4.89;nan;99464.19;4936263;28;20208;-76
2023/10/17 04:15:15;;;;;;;3.78;2.97;;;;;;;4.91;nan;99470.16;4936304;28;20765;-80
2023/10/17 04:17:41;;;;;;;3.05;2.83;;;;;;;4.94;nan;99469.16;4939364;28;20205;-79
2023/10/17 04:20:13;;;;;;;4.37;2.87;;;;;;;4.94;nan;99463.97;4935945;28;20260;-77
2023/10/17 04:22:43;;;;;;;4.43;4.03;;;;;;;4.98;nan;99455.13;4939749;28;20449;-80
2023/10/17 04:27:59;;;;;;;4.00;3.60;;;;;;;4.94;nan;99474.38;4941367;28;20679;-78
2023/10/17 04:30:46;;;;;;;3.70;3.38;;;;;;;4.83;nan;99477.44;4938553;28;20299;-78
2023/10/17 04:33:19;;;;;;;3.45;2.97;;;;;;;4.72;nan;99479.66;4935152;28;20217;-79
2023/10/17 04:35:48;;;;;;;3.42;2.92;;;;;;;4.62;nan;99484.41;4936651;28;20299;-78
2023/10/17 04:38:26;;;;;;;2.58;2.40;;;;;;;4.55;nan;99481.19;4935009;28;20526;-80
2023/10/17 04:41:17;;;;;;;4.55;3.00;;;;;;;4.47;nan;99483.25;4937322;28;20275;-77
2023/10/17 04:43:44;;;;;;;5.72;3.50;;;;;;;4.43;nan;99485.16;4935937;28;20205;-77
2023/10/17 04:46:10;;;;;;;6.10;2.58;;;;;;;4.47;nan;99490.22;4938896;28;20619;-80
2023/10/17 04:48:36;;;;;;;6.00;2.90;;;;;;;4.49;nan;99484.06;4937582;28;20291;-77
2023/10/17 04:53:48;;;;;;;3.97;3.28;;;;;;;4.51;nan;99479.63;4936121;28;20204;-77
2023/10/17 04:56:18;;;;;;;6.00;3.70;;;;;;;4.55;nan;99478.59;4936178;28;20272;-77
2023/10/17 05:01:41;;;;;;;3.38;3.08;;;;;;;4.65;nan;99477.31;4935028;28;20220;-78
2023/10/17 05:04:20;;;;;;;3.97;3.05;;;;;;;4.70;nan;99481.47;4935648;28;20204;-78
2023/10/17 06:17:48;;;;;;;5.00;4.35;;;;;;;4.49;nan;99504.00;4938177;28;21007;-77
2023/10/17 06:20:16;;;;;;;5.00;3.75;;;;;;;4.56;nan;99500.25;4938268;28;20276;-80
2023/10/17 06:28:46;;;;;;;5.38;4.00;;;;;;;4.63;nan;99496.50;4944689;28;20388;-79
2023/10/17 06:30:49;;;;;;;7.82;4.88;;;;;;;4.66;nan;99493.75;4936643;28;20221;-80
2023/10/17 06:33:19;;;;;;;6.32;4.45;;;;;;;4.72;nan;99498.69;4945568;28;20252;-79
2023/10/17 06:35:55;;;;;;;5.95;4.70;;;;;;;4.77;nan;99501.13;4940583;28;20213;-78
2023/10/17 06:38:43;;;;;;;6.20;3.80;;;;;;;4.82;nan;99509.59;4924134;28;20745;-80
2023/10/17 06:41:14;;;;;;;8.10;4.82;;;;;;;4.88;nan;99519.72;4940776;28;20216;-77
2023/10/17 06:43:46;;;;;;;7.05;2.85;;;;;;;4.91;nan;99514.38;4941264;28;20699;-77
2023/10/17 06:46:14;;;;;;;3.65;3.00;;;;;;;4.93;nan;99512.56;4939968;28;20212;-78
2023/10/17 06:48:49;;;;;;;6.75;4.80;;;;;;;4.91;nan;99516.16;4938252;28;20193;-77
2023/10/17 06:53:47;;;;;;;4.43;3.53;;;;;;;4.79;nan;99517.53;4943251;28;20559;-78
2023/10/17 06:56:18;;;;;;;3.53;3.22;;;;;;;4.75;nan;99523.75;4940615;28;20209;-79
2023/10/17 06:58:44;;;;;;;3.85;3.20;;;;;;;4.73;nan;99526.44;4941990;28;20201;-79
2023/10/17 07:01:23;;;;;;;6.10;3.50;;;;;;;4.73;nan;99523.00;4942533;28;20328;-80
2023/10/17 07:03:54;;;;;;;6.03;3.50;;;;;;;4.75;nan;99536.75;4943453;28;20472;-80
2023/10/17 07:06:21;;;;;;;5.33;4.07;;;;;;;4.82;nan;99520.84;4940709;28;20446;-79
2023/10/17 07:08:46;;;;;;;8.77;4.47;;;;;;;4.91;nan;99519.59;4940130;28;20722;-78
2023/10/17 07:16:34;;;;;;;4.03;3.70;;;;;;;5.25;nan;99513.81;4941508;28;20205;-80
2023/10/17 07:24:36;;;;;;;7.35;4.53;;;;;;;5.48;nan;99512.81;4942551;28;20470;-79
2023/10/17 07:30:10;;;;;;;4.18;3.17;;;;;;;5.73;nan;99509.94;4878793;29;20318;-74
2023/10/17 07:32:49;;;;;;;4.13;3.42;;;;;;;5.85;nan;99515.53;4879037;29;20333;-77
2023/10/17 07:35:23;;;;;;;7.10;3.80;;;;;;;5.95;nan;99516.81;4884114;29;20203;-75
2023/10/17 07:37:55;;;;;;;8.27;3.90;;;;;;;6.06;nan;99511.94;4888507;29;20191;-75
2023/10/17 07:40:31;;;;;;;3.85;3.40;;;;;;;6.17;nan;99517.50;4887618;29;20207;-74
2023/10/17 07:43:00;;;;;;;6.78;4.32;;;;;;;6.27;nan;99517.94;4881794;29;20585;-75
2023/10/17 07:45:37;;;;;;;4.90;3.50;;;;;;;6.38;nan;99518.25;4877618;29;20282;-75
2023/10/17 07:48:02;;;;;;;6.47;4.50;;;;;;;6.52;nan;99521.97;4880435;29;20713;-75
2023/10/17 07:50:28;;;;;;;10.53;5.27;;;;;;;6.65;nan;99526.50;4877686;29;20227;-75
2023/10/17 07:53:05;;;;;;;7.60;4.60;;;;;;;6.81;nan;99528.38;4880823;29;20383;-74
2023/10/17 07:55:36;;;;;;;9.70;4.03;;;;;;;6.97;nan;99542.38;4883913;29;20761;-75
2023/10/17 07:58:17;;;;;;;6.30;4.75;;;;;;;7.09;nan;99527.84;4880567;29;20211;-75
2023/10/17 08:00:43;;;;;;;7.38;4.78;;;;;;;7.21;nan;99526.34;4878120;29;20215;-75
2023/10/17 08:03:15;;;;;;;5.82;4.50;;;;;;;7.35;nan;99520.44;4878861;29;20207;-74
2023/10/17 08:08:33;;;;;;;6.63;5.22;;;;;;;7.71;nan;99525.50;4880165;29;20473;-75
2023/10/17 08:10:58;;;;;;;6.38;3.90;;;;;;;8.20;nan;99523.69;4904314;23;20237;-78
2023/10/17 08:13:23;;;;;;;11.83;4.53;;;;;;;9.17;nan;99525.22;4920134;28;20204;-78
2023/10/17 08:15:52;;;;;;;7.27;4.83;;;;;;;10.30;nan;99518.28;4928688;28;20596;-77
2023/10/17 08:18:22;;;;;;;6.32;4.35;;;;;;;11.47;nan;99515.78;4938070;28;20236;-79
2023/10/17 08:23:40;;;;;;;6.70;4.45;;;;;;;13.44;nan;99492.66;4934460;28;20212;-79
2023/10/17 08:26:11;;;;;;;3.50;3.10;;;;;;;14.18;nan;99489.50;4957838;28;20219;-79
2023/10/17 08:31:20;;;;;;;5.55;2.95;;;;;;;15.45;nan;99488.69;4955455;28;20674;-79
2023/10/17 08:33:57;;;;;;;6.07;3.85;;;;;;;15.98;nan;99475.25;4959016;28;20383;-79
2023/10/17 08:36:41;;;;;;;4.72;4.32;;;;;;;16.47;nan;99464.72;4959900;28;20208;-79
2023/10/17 08:41:57;;;;;;;6.50;4.20;;;;;;;17.25;nan;99465.53;4954842;28;20236;-79
2023/10/17 08:44:31;;;;;;;4.32;3.90;;;;;;;17.61;nan;99463.88;4960643;28;20546;-79
2023/10/17 08:46:57;;;;;;;7.28;3.75;;;;;;;18.06;nan;99452.47;4959618;28;20242;-79
2023/10/17 08:49:23;;;;;;;4.77;3.60;;;;;;;18.41;nan;99447.34;4956739;28;20223;-79
2023/10/17 08:51:49;;;;;;;3.20;2.90;;;;;;;18.63;nan;99444.22;4956346;28;20533;-80
2023/10/17 08:54:14;;;;;;;4.93;3.92;;;;;;;18.86;nan;99449.09;4958291;28;20207;-78
2023/10/17 08:56:42;;;;;;;5.63;4.10;;;;;;;19.07;nan;99454.09;4957342;28;20209;-78
2023/10/17 08:59:11;;;;;;;4.80;3.53;;;;;;;19.26;nan;99447.72;4961097;28;20200;-78
2023/10/17 09:01:37;;;;;;;5.55;4.63;;;;;;;19.35;nan;99452.09;4960924;28;20220;-78
2023/10/17 09:04:03;;;;;;;16.97;5.13;;;;;;;19.48;nan;99447.16;4957399;28;20208;-78
2023/10/17 09:06:29;;;;;;;5.45;4.70;;;;;;;19.39;nan;99448.13;4957716;28;20231;-78
2023/10/17 09:09:17;;;;;;;4.30;3.80;;;;;;;19.24;nan;99440.72;4958107;28;20228;-78
2023/10/17 09:12:01;;;;;;;4.75;4.05;;;;;;;19.12;nan;99447.31;4956356;28;20788;-78
2023/10/17 09:14:29;;;;;;;6.88;4.50;;;;;;;18.79;nan;99441.75;4956365;28;20252;-78
2023/10/17 09:17:10;;;;;;;4.85;3.60;;;;;;;18.44;nan;99436.41;4958074;28;20841;-78
2023/10/17 09:19:46;;;;;;;6.25;4.63;;;;;;;17.99;nan;99442.63;4954689;28;20924;-78
2023/10/17 09:22:15;;;;;;;4.90;3.90;;;;;;;17.45;nan;99445.91;4955359;28;20323;-78
2023/10/17 09:24:45;;;;;;;4.68;4.20;;;;;;;17.02;nan;99438.50;4957040;28;20203;-78
2023/10/17 09:27:14;;;;;;;6.15;4.00;;;;;;;16.63;nan;99448.28;4958209;28;20243;-78
2023/10/17 09:29:51;;;;;;;4.82;3.95;;;;;;;16.24;nan;99442.97;4953654;28;20200;-78
2023/10/17 09:32:37;;;;;;;6.30;4.57;;;;;;;15.89;nan;99445.13;4955018;28;20226;-78
2023/10/17 09:35:16;;;;;;;4.43;4.00;;;;;;;15.62;nan;99444.88;4957206;28;20239;-78
2023/10/17 09:37:51;;;;;;;3.72;3.40;;;;;;;15.39;nan;99436.28;4956789;28;20201;-78
2023/10/17 09:40:29;;;;;;;6.63;5.40;;;;;;;15.16;nan;99438.25;4957864;28;20268;-78
2023/10/17 09:42:56;;;;;;;5.22;4.78;;;;;;;15.00;nan;99439.56;4967572;28;20283;-78
2023/10/17 09:45:22;;;;;;;5.38;3.95;;;;;;;14.65;nan;99434.59;4955238;28;20359;-78
2023/10/17 09:47:52;;;;;;;6.50;4.70;;;;;;;14.49;nan;99437.63;4970486;28;20254;-79
2023/10/17 09:50:18;;;;;;;5.20;4.25;;;;;;;14.44;nan;99431.88;4956949;28;20698;-80
2023/10/17 09:52:53;;;;;;;7.82;4.43;;;;;;;14.44;nan;99428.41;4958963;28;20718;-77
2023/10/17 09:55:23;;;;;;;5.57;4.65;;;;;;;14.50;nan;99430.53;4955716;28;20220;-78
2023/10/17 09:57:52;;;;;;;3.72;3.42;;;;;;;14.62;nan;99432.19;4957516;28;20201;-78
2023/10/17 10:00:41;;;;;;;5.25;4.13;;;;;;;14.70;nan;99424.47;4957374;28;20227;-77
2023/10/17 10:03:08;;;;;;;5.22;3.80;;;;;;;14.75;nan;99427.56;4957263;28;20207;-78
2023/10/17 10:05:34;;;;;;;4.18;3.28;;;;;;;14.67;nan;99422.09;4955292;28;20262;-77
2023/10/17 10:08:03;;;;;;;4.13;3.40;;;;;;;14.62;nan;99426.91;4957258;28;20651;-77
2023/10/17 10:10:48;;;;;;;5.18;3.80;;;;;;;14.70;nan;99421.81;4954934;28;20251;-77
2023/10/17 10:13:14;;;;;;;2.70;2.50;;;;;;;14.76;nan;99417.81;4951509;28;20251;-77
2023/10/17 10:16:04;;;;;;;3.53;3.13;;;;;;;14.76;nan;99408.09;4959518;28;20671;-77
2023/10/17 10:18:35;;;;;;;5.00;3.63;;;;;;;14.78;nan;99418.53;4960045;28;20459;-78
2023/10/17 10:21:04;;;;;;;3.70;3.40;;;;;;;14.91;nan;99411.25;4956202;28;20762;-77
2023/10/17 10:23:34;;;;;;;4.38;3.55;;;;;;;14.87;nan;99411.63;4957067;28;20615;-78
2023/10/17 10:26:19;;;;;;;4.47;3.03;;;;;;;14.78;nan;99416.72;4956951;28;20212;-77
2023/10/17 10:28:47;;;;;;;5.50;4.47;;;;;;;14.81;nan;99400.59;4960572;28;20386;-77
2023/10/17 10:31:29;;;;;;;4.78;3.40;;;;;;;14.82;nan;99399.66;4961613;28;20367;-77
2023/10/17 10:33:55;;;;;;;9.20;3.35;;;;;;;14.74;nan;99399.47;4958082;28;20271;-77
2023/10/17 10:36:24;;;;;;;6.00;3.55;;;;;;;14.79;nan;99396.41;4958130;28;20211;-77
2023/10/17 10:38:54;;;;;;;6.47;4.22;;;;;;;14.87;nan;99393.94;4959530;28;20291;-77
2023/10/17 10:41:22;;;;;;;4.28;3.88;;;;;;;14.98;nan;99395.69;4957529;28;20237;-77
2023/10/17 10:43:48;;;;;;;4.50;3.15;;;;;;;15.09;nan;99403.53;4960645;28;20236;-77
2023/10/17 10:46:15;;;;;;;4.65;3.97;;;;;;;15.19;nan;99391.19;4961434;28;20211;-77
2023/10/17 10:48:48;;;;;;;4.93;3.47;;;;;;;15.25;nan;99400.41;4958309;28;20627;-77
2023/10/17 10:51:17;;;;;;;4.05;3.65;;;;;;;15.32;nan;99398.09;4957915;28;20200;-77
2023/10/17 10:53:44;;;;;;;4.30;3.60;;;;;;;15.30;nan;99390.28;4959090;28;20212;-77
2023/10/17 10:56:15;;;;;;;6.22;4.90;;;;;;;15.35;nan;99395.19;4955944;28;20836;-77
2023/10/17 10:58:47;;;;;;;5.30;4.30;;;;;;;15.38;nan;99392.25;4968958;28;21448;-78
2023/10/17 11:01:14;;;;;;;3.60;3.30;;;;;;;15.33;nan;99384.72;4949946;28;20212;-78
2023/10/17 11:03:41;;;;;;;3.70;3.40;;;;;;;15.32;nan;99383.03;4950307;28;20200;-77
2023/10/17 11:06:09;;;;;;;4.50;3.58;;;;;;;15.39;nan;99384.19;4951117;28;20504;-78
2023/10/17 11:08:41;;;;;;;4.35;2.90;;;;;;;15.49;nan;99378.91;4952569;28;20659;-78
2023/10/17 11:11:09;;;;;;;4.75;3.05;;;;;;;15.52;nan;99380.47;4952103;28;20232;-78
2023/10/17 11:13:37;;;;;;;3.50;3.13;;;;;;;15.49;nan;99373.63;4951900;28;20243;-76
2023/10/17 11:16:06;;;;;;;4.65;3.55;;;;;;;15.50;nan;99367.38;4954950;28;20435;-75
2023/10/17 11:18:33;;;;;;;3.80;2.80;;;;;;;15.42;nan;99367.22;4948680;28;20196;-76
2023/10/17 11:21:00;;;;;;;5.53;3.30;;;;;;;15.38;nan;99360.50;4958312;28;20219;-76
2023/10/17 11:23:27;;;;;;;3.08;2.83;;;;;;;15.39;nan;99359.50;4951239;28;20197;-76
2023/10/17 11:25:54;;;;;;;3.85;2.72;;;;;;;15.42;nan;99353.97;4948401;28;20193;-75
2023/10/17 11:28:21;;;;;;;3.60;3.25;;;;;;;15.44;nan;99355.50;4949175;28;20674;-76
2023/10/17 11:30:48;;;;;;;3.72;2.90;;;;;;;15.46;nan;99336.84;4951297;28;20915;-75
2023/10/17 11:33:16;;;;;;;4.43;3.05;;;;;;;15.39;nan;99330.41;4952010;28;20357;-76
2023/10/17 11:35:50;;;;;;;3.70;2.97;;;;;;;15.35;nan;99329.84;4952819;28;20243;-76
2023/10/17 11:38:34;;;;;;;4.43;2.58;;;;;;;15.37;nan;99333.19;4947813;28;20204;-76
2023/10/17 11:41:03;;;;;;;2.63;2.30;;;;;;;15.42;nan;99320.41;4952270;28;20457;-76
2023/10/17 11:43:34;;;;;;;3.65;2.80;;;;;;;15.45;nan;99321.94;4954322;28;20192;-76
2023/10/17 11:46:01;;;;;;;8.98;3.60;;;;;;;15.48;nan;99317.22;4952733;28;20262;-75
2023/10/17 11:48:33;;;;;;;6.97;2.58;;;;;;;15.49;nan;99325.97;4950654;28;20679;-75
2023/10/17 11:51:13;;;;;;;3.30;2.97;;;;;;;15.48;nan;99324.31;4954768;28;20452;-75
2023/10/17 11:54:09;;;;;;;3.55;3.25;;;;;;;15.52;nan;99320.41;4963856;28;20239;-76
2023/10/17 11:56:37;;;;;;;3.45;3.20;;;;;;;15.52;nan;99323.06;4949038;28;20768;-76
2023/10/17 11:59:06;;;;;;;5.53;2.92;;;;;;;15.52;nan;99325.69;4958930;28;20709;-78
2023/10/17 12:01:33;;;;;;;3.17;2.72;;;;;;;15.56;nan;99327.13;4953772;28;20342;-78
2023/10/17 12:04:08;;;;;;;4.35;3.20;;;;;;;15.58;nan;99319.88;4949405;28;20256;-78
2023/10/17 12:06:34;;;;;;;4.63;2.92;;;;;;;15.59;nan;99326.00;4951298;28;20232;-78
2023/10/17 12:09:17;;;;;;;9.07;4.20;;;;;;;15.61;nan;99319.59;4950955;28;20243;-78
2023/10/17 12:11:46;;;;;;;4.68;3.10;;;;;;;15.66;nan;99327.13;4953205;28;20519;-78
2023/10/17 12:14:21;;;;;;;4.20;3.40;;;;;;;15.69;nan;99322.44;4956277;28;20579;-78
2023/10/17 12:16:55;;;;;;;4.43;3.13;;;;;;;15.60;nan;99322.38;4951978;28;20798;-78
2023/10/17 12:19:26;;;;;;;5.43;2.95;;;;;;;15.63;nan;99311.50;4951822;28;20266;-78
2023/10/17 12:21:53;;;;;;;6.75;3.90;;;;;;;15.61;nan;99310.84;4950518;28;20582;-78
2023/10/17 12:24:24;;;;;;;6.38;4.00;;;;;;;15.58;nan;99309.28;4951777;28;20259;-78
2023/10/17 12:26:52;;;;;;;5.45;3.28;;;;;;;15.54;nan;99312.34;4951582;28;20243;-78
2023/10/17 12:29:19;;;;;;;3.53;3.22;;;;;;;15.55;nan;99319.31;4949099;28;20205;-78
2023/10/17 12:31:45;;;;;;;5.22;3.33;;;;;;;15.59;nan;99313.59;4950544;28;20212;-78
2023/10/17 12:34:15;;;;;;;4.80;3.90;;;;;;;15.57;nan;99312.06;4953864;28;20620;-78
2023/10/17 12:36:41;;;;;;;4.25;3.33;;;;;;;15.58;nan;99314.59;4951781;28;20210;-78
2023/10/17 12:39:09;;;;;;;6.97;4.60;;;;;;;15.67;nan;99310.28;4950718;28;20208;-78
2023/10/17 12:41:35;;;;;;;4.90;4.47;;;;;;;15.69;nan;99313.66;4951368;28;20208;-78
2023/10/17 12:44:01;;;;;;;6.23;4.70;;;;;;;15.70;nan;99304.72;4952195;28;20497;-78
2023/10/17 12:46:26;;;;;;;8.20;5.50;;;;;;;15.70;nan;99297.63;4948515;28;20517;-77
2023/10/17 12:48:52;;;;;;;9.07;4.90;;;;;;;15.73;nan;99296.50;4951752;28;20201;-78
2023/10/17 12:51:20;;;;;;;4.83;4.30;;;;;;;15.70;nan;99288.84;4952640;28;20561;-78
2023/10/17 12:53:46;;;;;;;4.25;3.40;;;;;;;15.66;nan;99288.25;4948975;28;20205;-79
2023/10/17 12:56:12;;;;;;;5.03;3.70;;;;;;;15.67;nan;99281.97;4944640;28;20204;-78
2023/10/17 12:58:37;;;;;;;3.33;3.03;;;;;;;15.64;nan;99286.72;4949372;28;20196;-78
2023/10/17 13:01:06;;;;;;;5.87;4.17;;;;;;;15.62;nan;99278.06;4951619;28;20227;-78
2023/10/17 13:03:33;;;;;;;9.75;3.75;;;;;;;15.58;nan;99280.19;4953002;28;20193;-77
2023/10/17 13:06:00;;;;;;;6.25;3.60;;;;;;;15.57;nan;99278.47;4951959;28;20753;-78
2023/10/17 13:08:26;;;;;;;5.80;3.47;;;;;;;15.60;nan;99277.38;4949206;28;20216;-78
2023/10/17 13:10:55;;;;;;;4.47;4.07;;;;;;;15.65;nan;99278.63;4953196;28;20619;-78
2023/10/17 13:13:21;;;;;;;3.55;3.25;;;;;;;15.68;nan;99278.38;4954392;28;20472;-78
2023/10/17 13:15:47;;;;;;;3.65;3.35;;;;;;;15.73;nan;99279.78;4954491;28;20201;-78
2023/10/17 13:18:14;;;;;;;7.13;4.53;;;;;;;15.75;nan;99278.69;4953176;28;20705;-79
2023/10/17 13:20:46;;;;;;;5.80;3.28;;;;;;;15.77;nan;99275.88;4956495;28;20677;-79
2023/10/17 13:23:12;;;;;;;5.80;4.13;;;;;;;15.77;nan;99278.53;4956597;28;20293;-79
2023/10/17 13:25:41;;;;;;;6.10;3.33;;;;;;;15.82;nan;99273.66;4959785;28;20204;-79
2023/10/17 13:28:07;;;;;;;4.30;3.60;;;;;;;15.88;nan;99271.28;4962055;28;20192;-80
2023/10/17 13:30:33;;;;;;;4.63;3.70;;;;;;;15.92;nan;99263.91;4965314;28;20204;-80
2023/10/17 13:32:58;;;;;;;3.87;3.20;;;;;;;15.91;nan;99260.41;4968887;28;20746;-80
2023/10/17 13:35:24;;;;;;;5.90;4.20;;;;;;;15.94;nan;99259.31;4966845;28;20212;-80
2023/10/17 13:37:54;;;;;;;5.80;3.50;;;;;;;16.00;nan;99253.44;4962888;28;20200;-80
2023/10/17 13:40:21;;;;;;;4.60;4.07;;;;;;;16.02;nan;99253.31;4965270;28;20522;-80
2023/10/17 13:42:50;;;;;;;4.80;3.70;;;;;;;15.97;nan;99248.41;4967651;28;20335;-80
2023/10/17 13:45:21;;;;;;;5.50;4.43;;;;;;;15.92;nan;99246.19;4965420;28;20689;-81
2023/10/17 13:47:50;;;;;;;6.82;3.70;;;;;;;15.93;nan;99239.06;4960486;28;20205;-80
2023/10/17 13:50:19;;;;;;;4.90;4.05;;;;;;;15.97;nan;99240.47;4971345;28;20208;-80
2023/10/17 13:52:46;;;;;;;7.03;4.50;;;;;;;16.03;nan;99231.94;4965830;28;20208;-80
2023/10/17 13:55:14;;;;;;;7.68;4.55;;;;;;;16.11;nan;99239.19;4966956;28;20710;-80
2023/10/17 13:57:46;;;;;;;5.38;4.88;;;;;;;16.19;nan;99234.03;4955021;28;20516;-80
2023/10/17 14:00:21;;;;;;;5.25;4.75;;;;;;;16.24;nan;99228.31;4966251;28;20322;-80
2023/10/17 14:02:49;;;;;;;5.63;4.20;;;;;;;16.23;nan;99223.97;4968135;28;20309;-80
2023/10/17 14:05:16;;;;;;;5.20;4.45;;;;;;;16.20;nan;99219.78;4972286;28;20267;-80
2023/10/17 14:07:43;;;;;;;8.15;4.88;;;;;;;16.21;nan;99225.94;4967506;28;20750;-80
2023/10/17 14:10:12;;;;;;;4.75;4.35;;;;;;;16.20;nan;99219.78;4966676;28;20848;-80